sensor_id;sensor_type;location;lat;lon;timestamp;pressure;altitude;pressure_sealevel;temperature;humidity
71772;BME280;59606;52.138;5.424;2024-03-23T00:53:12;101117.66;;;7.48;100.00
71772;BME280;59606;52.138;5.424;2024-03-23T00:55:38;101110.81;;;7.46;100.00
71772;BME280;59606;52.138;5.424;2024-03-23T00:58:03;101108.28;;;7.44;100.00
71772;BME280;59606;52.138;5.424;2024-03-23T01:00:29;101108.34;;;7.43;100.00
71772;BME280;59606;52.138;5.424;2024-03-23T01:02:54;101108.28;;;7.44;100.00
71772;BME280;59606;52.138;5.424;2024-03-23T01:05:20;101108.34;;;7.43;100.00
71772;BME280;59606;52.138;5.424;2024-03-23T01:07:46;101109.38;;;7.39;100.00
71772;BME280;59606;52.138;5.424;2024-03-23T01:10:12;101112.06;;;7.36;100.00
71772;BME280;59606;52.138;5.424;2024-03-23T01:12:38;101106.94;;;7.34;100.00
71772;BME280;59606;52.138;5.424;2024-03-23T01:15:03;101108.56;;;7.37;100.00
71772;BME280;59606;52.138;5.424;2024-03-23T01:17:29;101098.28;;;7.35;100.00
71772;BME280;59606;52.138;5.424;2024-03-23T01:19:55;101100.91;;;7.33;100.00
71772;BME280;59606;52.138;5.424;2024-03-23T01:22:20;101094.78;;;7.36;100.00
71772;BME280;59606;52.138;5.424;2024-03-23T01:24:46;101088.75;;;7.36;100.00
71772;BME280;59606;52.138;5.424;2024-03-23T01:27:11;101087.00;;;7.36;100.00
71772;BME280;59606;52.138;5.424;2024-03-23T01:29:37;101083.59;;;7.34;100.00
71772;BME280;59606;52.138;5.424;2024-03-23T01:32:03;101075.91;;;7.32;100.00
71772;BME280;59606;52.138;5.424;2024-03-23T01:34:28;101071.56;;;7.33;100.00
71772;BME280;59606;52.138;5.424;2024-03-23T01:36:54;101075.84;;;7.34;100.00
71772;BME280;59606;52.138;5.424;2024-03-23T01:39:19;101068.19;;;7.31;100.00
71772;BME280;59606;52.138;5.424;2024-03-23T01:41:45;101061.41;;;7.27;100.00
71772;BME280;59606;52.138;5.424;2024-03-23T01:44:10;101061.53;;;7.24;100.00
71772;BME280;59606;52.138;5.424;2024-03-23T01:46:39;101056.47;;;7.21;100.00
71772;BME280;59606;52.138;5.424;2024-03-23T01:49:07;101054.00;;;7.18;100.00
71772;BME280;59606;52.138;5.424;2024-03-23T01:51:34;101046.34;;;7.15;100.00
71772;BME280;59606;52.138;5.424;2024-03-23T01:54:00;101052.59;;;7.09;100.00
71772;BME280;59606;52.138;5.424;2024-03-23T01:56:31;101045.00;;;7.04;100.00
71772;BME280;59606;52.138;5.424;2024-03-23T01:58:58;101046.91;;;6.99;100.00
71772;BME280;59606;52.138;5.424;2024-03-23T02:01:24;101047.09;;;6.95;100.00
71772;BME280;59606;52.138;5.424;2024-03-23T02:03:49;101046.34;;;6.91;100.00
71772;BME280;59606;52.138;5.424;2024-03-23T02:06:15;101042.13;;;6.89;100.00
71772;BME280;59606;52.138;5.424;2024-03-23T02:08:40;101050.19;;;6.81;100.00
71772;BME280;59606;52.138;5.424;2024-03-23T02:11:06;101044.31;;;6.76;100.00
71772;BME280;59606;52.138;5.424;2024-03-23T02:13:31;101051.41;;;6.71;100.00
71772;BME280;59606;52.138;5.424;2024-03-23T02:15:57;101048.00;;;6.69;100.00
71772;BME280;59606;52.138;5.424;2024-03-23T02:18:24;101052.44;;;6.65;100.00
71772;BME280;59606;52.138;5.424;2024-03-23T02:20:50;101053.50;;;6.59;100.00
71772;BME280;59606;52.138;5.424;2024-03-23T02:23:16;101044.09;;;6.57;100.00
71772;BME280;59606;52.138;5.424;2024-03-23T02:25:42;101049.41;;;6.54;100.00
71772;BME280;59606;52.138;5.424;2024-03-23T02:28:08;101047.78;;;6.50;100.00
71772;BME280;59606;52.138;5.424;2024-03-23T02:30:33;101039.28;;;6.46;100.00
71772;BME280;59606;52.138;5.424;2024-03-23T02:32:59;101037.72;;;6.42;100.00
71772;BME280;59606;52.138;5.424;2024-03-23T02:35:25;101029.16;;;6.40;100.00
71772;BME280;59606;52.138;5.424;2024-03-23T02:37:50;101024.88;;;6.39;100.00
71772;BME280;59606;52.138;5.424;2024-03-23T02:40:17;101030.13;;;6.37;100.00
71772;BME280;59606;52.138;5.424;2024-03-23T02:42:42;101031.06;;;6.35;100.00
71772;BME280;59606;52.138;5.424;2024-03-23T02:45:08;101028.50;;;6.33;100.00
71772;BME280;59606;52.138;5.424;2024-03-23T02:47:34;101027.75;;;6.31;100.00
71772;BME280;59606;52.138;5.424;2024-03-23T02:50:01;101031.28;;;6.29;100.00
71772;BME280;59606;52.138;5.424;2024-03-23T02:52:27;101024.44;;;6.26;100.00
71772;BME280;59606;52.138;5.424;2024-03-23T02:54:52;101021.09;;;6.24;100.00
71772;BME280;59606;52.138;5.424;2024-03-23T02:57:18;101032.38;;;6.22;100.00
71772;BME280;59606;52.138;5.424;2024-03-23T02:59:44;101041.03;;;6.21;100.00
71772;BME280;59606;52.138;5.424;2024-03-23T03:02:09;101032.41;;;6.20;100.00
71772;BME280;59606;52.138;5.424;2024-03-23T03:04:35;101027.38;;;6.17;100.00
71772;BME280;59606;52.138;5.424;2024-03-23T03:07:00;101032.56;;;6.16;100.00
71772;BME280;59606;52.138;5.424;2024-03-23T03:09:26;101036.09;;;6.13;100.00
71772;BME280;59606;52.138;5.424;2024-03-23T03:11:52;101033.50;;;6.13;100.00
71772;BME280;59606;52.138;5.424;2024-03-23T03:14:18;101036.16;;;6.11;100.00
71772;BME280;59606;52.138;5.424;2024-03-23T03:16:45;101025.00;;;6.09;100.00
71772;BME280;59606;52.138;5.424;2024-03-23T03:19:10;101032.88;;;6.06;100.00
71772;BME280;59606;52.138;5.424;2024-03-23T03:21:37;101030.44;;;6.02;100.00
71772;BME280;59606;52.138;5.424;2024-03-23T03:24:03;101024.56;;;5.97;100.00
71772;BME280;59606;52.138;5.424;2024-03-23T03:26:29;101023.81;;;5.93;100.00
71772;BME280;59606;52.138;5.424;2024-03-23T03:28:54;101027.28;;;5.92;100.00
71772;BME280;59606;52.138;5.424;2024-03-23T03:31:20;101024.78;;;5.89;100.00
71772;BME280;59606;52.138;5.424;2024-03-23T03:33:46;101027.47;;;5.86;100.00
71772;BME280;59606;52.138;5.424;2024-03-23T03:36:11;101028.41;;;5.83;100.00
71772;BME280;59606;52.138;5.424;2024-03-23T03:38:37;101019.06;;;5.79;100.00
71772;BME280;59606;52.138;5.424;2024-03-23T03:41:04;101014.00;;;5.76;100.00
71772;BME280;59606;52.138;5.424;2024-03-23T03:43:29;101012.41;;;5.72;100.00
71772;BME280;59606;52.138;5.424;2024-03-23T03:45:57;101012.56;;;5.67;100.00
71772;BME280;59606;52.138;5.424;2024-03-23T03:48:22;101008.28;;;5.66;100.00
71772;BME280;59606;52.138;5.424;2024-03-23T03:50:48;101007.44;;;5.66;100.00
71772;BME280;59606;52.138;5.424;2024-03-23T03:53:14;101005.91;;;5.60;100.00
71772;BME280;59606;52.138;5.424;2024-03-23T03:55:40;100999.09;;;5.58;100.00
71772;BME280;59606;52.138;5.424;2024-03-23T03:58:05;101003.44;;;5.56;100.00
71772;BME280;59606;52.138;5.424;2024-03-23T04:00:31;100996.63;;;5.53;100.00
71772;BME280;59606;52.138;5.424;2024-03-23T04:02:57;100996.75;;;5.50;100.00
71772;BME280;59606;52.138;5.424;2024-03-23T04:05:22;100999.44;;;5.47;100.00
71772;BME280;59606;52.138;5.424;2024-03-23T04:07:49;101006.38;;;5.45;100.00
71772;BME280;59606;52.138;5.424;2024-03-23T04:10:15;101001.28;;;5.42;100.00
71772;BME280;59606;52.138;5.424;2024-03-23T04:12:44;100998.81;;;5.39;100.00
71772;BME280;59606;52.138;5.424;2024-03-23T04:15:10;100995.38;;;5.38;100.00
71772;BME280;59606;52.138;5.424;2024-03-23T04:17:35;100984.31;;;5.35;100.00
71772;BME280;59606;52.138;5.424;2024-03-23T04:20:02;100990.47;;;5.31;100.00
71772;BME280;59606;52.138;5.424;2024-03-23T04:22:29;100988.75;;;5.30;100.00
71772;BME280;59606;52.138;5.424;2024-03-23T04:24:56;100987.91;;;5.29;100.00
71772;BME280;59606;52.138;5.424;2024-03-23T04:27:22;100980.22;;;5.28;100.00
71772;BME280;59606;52.138;5.424;2024-03-23T04:29:49;100981.13;;;5.27;100.00
71772;BME280;59606;52.138;5.424;2024-03-23T04:32:15;100987.22;;;5.24;100.00
71772;BME280;59606;52.138;5.424;2024-03-23T04:34:41;100982.09;;;5.23;100.00
71772;BME280;59606;52.138;5.424;2024-03-23T04:37:07;100983.97;;;5.17;100.00
71772;BME280;59606;52.138;5.424;2024-03-23T04:39:33;100976.31;;;5.14;100.00
71772;BME280;59606;52.138;5.424;2024-03-23T04:41:59;100982.38;;;5.13;100.00
71772;BME280;59606;52.138;5.424;2024-03-23T04:44:26;100982.38;;;5.13;100.00
71772;BME280;59606;52.138;5.424;2024-03-23T04:46:52;100982.38;;;5.13;100.00
71772;BME280;59606;52.138;5.424;2024-03-23T04:49:17;100992.72;;;5.13;100.00
71772;BME280;59606;52.138;5.424;2024-03-23T04:51:43;100990.91;;;5.15;100.00
71772;BME280;59606;52.138;5.424;2024-03-23T04:54:14;100986.59;;;5.16;100.00
71772;BME280;59606;52.138;5.424;2024-03-23T04:56:40;100982.28;;;5.16;100.00
71772;BME280;59606;52.138;5.424;2024-03-23T04:59:06;100982.28;;;5.16;100.00
71772;BME280;59606;52.138;5.424;2024-03-23T05:01:32;100981.56;;;5.11;100.00
71772;BME280;59606;52.138;5.424;2024-03-23T05:03:58;100977.41;;;5.06;100.00
71772;BME280;59606;52.138;5.424;2024-03-23T05:06:24;100979.31;;;5.01;100.00
71772;BME280;59606;52.138;5.424;2024-03-23T05:08:50;100978.56;;;4.97;100.00
71772;BME280;59606;52.138;5.424;2024-03-23T05:11:16;100986.47;;;4.91;100.00
71772;BME280;59606;52.138;5.424;2024-03-23T05:13:44;100984.78;;;4.90;100.00
71772;BME280;59606;52.138;5.424;2024-03-23T05:16:09;100982.25;;;4.88;100.00
71772;BME280;59606;52.138;5.424;2024-03-23T05:18:35;100978.09;;;4.83;100.00
71772;BME280;59606;52.138;5.424;2024-03-23T05:21:02;100983.38;;;4.80;100.00
71772;BME280;59606;52.138;5.424;2024-03-23T05:23:29;100984.31;;;4.76;100.00
71772;BME280;59606;52.138;5.424;2024-03-23T05:25:55;100982.63;;;4.75;100.00
71772;BME280;59606;52.138;5.424;2024-03-23T05:28:22;100990.38;;;4.75;100.00
71772;BME280;59606;52.138;5.424;2024-03-23T05:30:54;100989.56;;;4.72;100.00
71772;BME280;59606;52.138;5.424;2024-03-23T05:33:20;100987.97;;;4.68;100.00
71772;BME280;59606;52.138;5.424;2024-03-23T05:35:46;100988.03;;;4.67;100.00
71772;BME280;59606;52.138;5.424;2024-03-23T05:38:13;100994.88;;;4.68;100.00
71772;BME280;59606;52.138;5.424;2024-03-23T05:40:39;100990.63;;;4.65;100.00
71772;BME280;59606;52.138;5.424;2024-03-23T05:43:06;100984.59;;;4.66;100.00
71772;BME280;59606;52.138;5.424;2024-03-23T05:45:33;100988.81;;;4.69;100.00
71772;BME280;59606;52.138;5.424;2024-03-23T05:47:58;100987.75;;;4.76;100.00
71772;BME280;59606;52.138;5.424;2024-03-23T05:50:25;100984.25;;;4.79;100.00
71772;BME280;59606;52.138;5.424;2024-03-23T05:52:51;100987.53;;;4.84;100.00
71772;BME280;59606;52.138;5.424;2024-03-23T05:55:16;100986.66;;;4.85;100.00
71772;BME280;59606;52.138;5.424;2024-03-23T05:57:42;100981.47;;;4.86;100.00
71772;BME280;59606;52.138;5.424;2024-03-23T06:00:09;100978.00;;;4.86;100.00
71772;BME280;59606;52.138;5.424;2024-03-23T06:02:42;100979.84;;;4.82;100.00
71772;BME280;59606;52.138;5.424;2024-03-23T06:05:13;100978.22;;;4.80;100.00
71772;BME280;59606;52.138;5.424;2024-03-23T06:07:38;100973.03;;;4.80;100.00
71772;BME280;59606;52.138;5.424;2024-03-23T06:10:05;100985.94;;;4.80;100.00
71772;BME280;59606;52.138;5.424;2024-03-23T06:12:33;100982.50;;;4.79;100.00
71772;BME280;59606;52.138;5.424;2024-03-23T06:14:58;100978.22;;;4.80;100.00
71772;BME280;59606;52.138;5.424;2024-03-23T06:17:24;100984.22;;;4.80;100.00
71772;BME280;59606;52.138;5.424;2024-03-23T06:19:49;100986.81;;;4.79;100.00
71772;BME280;59606;52.138;5.424;2024-03-23T06:22:15;100980.88;;;4.77;100.00
71772;BME280;59606;52.138;5.424;2024-03-23T06:24:41;100981.75;;;4.76;100.00
71772;BME280;59606;52.138;5.424;2024-03-23T06:27:06;100986.13;;;4.73;100.00
71772;BME280;59606;52.138;5.424;2024-03-23T06:29:32;100966.25;;;4.76;100.00
71772;BME280;59606;52.138;5.424;2024-03-23T06:31:58;100971.38;;;4.77;100.00
71772;BME280;59606;52.138;5.424;2024-03-23T06:34:24;100970.34;;;4.83;100.00
71772;BME280;59606;52.138;5.424;2024-03-23T06:36:52;100967.66;;;4.87;100.00
71772;BME280;59606;52.138;5.424;2024-03-23T06:39:18;100961.56;;;4.90;100.00
71772;BME280;59606;52.138;5.424;2024-03-23T06:41:52;100964.84;;;4.95;100.00
71772;BME280;59606;52.138;5.424;2024-03-23T06:44:19;100969.06;;;4.97;100.00
71772;BME280;59606;52.138;5.424;2024-03-23T06:46:45;100968.91;;;5.02;100.00
71772;BME280;59606;52.138;5.424;2024-03-23T06:49:11;100961.91;;;5.07;100.00
71772;BME280;59606;52.138;5.424;2024-03-23T06:51:37;100965.16;;;5.12;100.00
71772;BME280;59606;52.138;5.424;2024-03-23T06:54:06;100956.47;;;5.16;100.00
71772;BME280;59606;52.138;5.424;2024-03-23T06:56:31;100969.16;;;5.23;100.00
71772;BME280;59606;52.138;5.424;2024-03-23T06:58:58;100968.97;;;5.29;100.00
71772;BME280;59606;52.138;5.424;2024-03-23T07:01:23;100967.91;;;5.36;100.00
71772;BME280;59606;52.138;5.424;2024-03-23T07:03:49;100973.63;;;5.46;100.00
71772;BME280;59606;52.138;5.424;2024-03-23T07:06:16;100970.03;;;5.50;100.00
71772;BME280;59606;52.138;5.424;2024-03-23T07:08:42;100983.63;;;5.56;100.00
71772;BME280;59606;52.138;5.424;2024-03-23T07:11:07;100970.66;;;5.58;100.00
71772;BME280;59606;52.138;5.424;2024-03-23T07:13:33;100972.09;;;5.66;100.00
71772;BME280;59606;52.138;5.424;2024-03-23T07:15:59;100966.72;;;5.73;100.00
71772;BME280;59606;52.138;5.424;2024-03-23T07:18:25;100969.91;;;5.81;100.00
71772;BME280;59606;52.138;5.424;2024-03-23T07:21:00;100961.06;;;5.88;100.00
71772;BME280;59606;52.138;5.424;2024-03-23T07:23:28;100962.56;;;5.95;100.00
71772;BME280;59606;52.138;5.424;2024-03-23T07:26:03;100961.38;;;6.05;100.00
71772;BME280;59606;52.138;5.424;2024-03-23T07:28:33;100973.28;;;6.09;100.00
71772;BME280;59606;52.138;5.424;2024-03-23T07:31:07;100963.53;;;6.18;100.00
71772;BME280;59606;52.138;5.424;2024-03-23T07:33:37;100972.66;;;6.28;100.00
71772;BME280;59606;52.138;5.424;2024-03-23T07:36:04;100968.25;;;6.30;100.00
71772;BME280;59606;52.138;5.424;2024-03-23T07:38:29;100961.09;;;6.38;100.00
71772;BME280;59606;52.138;5.424;2024-03-23T07:41:10;100959.03;;;6.48;100.00
71772;BME280;59606;52.138;5.424;2024-03-23T07:43:37;100961.34;;;6.55;100.00
71772;BME280;59606;52.138;5.424;2024-03-23T07:46:04;100968.88;;;6.61;100.00
71772;BME280;59606;52.138;5.424;2024-03-23T07:48:30;100960.91;;;6.68;100.00
71772;BME280;59606;52.138;5.424;2024-03-23T07:51:07;100964.16;;;6.73;100.00
71772;BME280;59606;52.138;5.424;2024-03-23T07:53:34;100973.66;;;6.72;100.00
71772;BME280;59606;52.138;5.424;2024-03-23T07:56:03;100963.94;;;6.79;100.00
71772;BME280;59606;52.138;5.424;2024-03-23T07:58:29;100967.03;;;6.89;100.00
71772;BME280;59606;52.138;5.424;2024-03-23T08:01:01;100972.00;;;6.93;100.00
71772;BME280;59606;52.138;5.424;2024-03-23T08:03:28;100965.09;;;6.94;100.00
71772;BME280;59606;52.138;5.424;2024-03-23T08:05:54;100973.47;;;7.00;100.00
71772;BME280;59606;52.138;5.424;2024-03-23T08:08:20;100962.13;;;7.04;100.00
71772;BME280;59606;52.138;5.424;2024-03-23T08:10:50;100960.16;;;7.09;100.00
71772;BME280;59606;52.138;5.424;2024-03-23T08:13:16;100954.94;;;7.11;100.00
71772;BME280;59606;52.138;5.424;2024-03-23T08:15:42;100952.59;;;7.05;100.00
71772;BME280;59606;52.138;5.424;2024-03-23T08:18:10;100959.22;;;7.12;100.00
71772;BME280;59606;52.138;5.424;2024-03-23T08:20:36;100960.47;;;7.24;100.00
71772;BME280;59606;52.138;5.424;2024-03-23T08:23:01;100953.16;;;7.35;100.00
71772;BME280;59606;52.138;5.424;2024-03-23T08:25:30;100962.13;;;7.48;100.00
71772;BME280;59606;52.138;5.424;2024-03-23T08:27:56;100960.16;;;7.53;100.00
71772;BME280;59606;52.138;5.424;2024-03-23T08:30:22;100960.16;;;7.53;100.00
71772;BME280;59606;52.138;5.424;2024-03-23T08:32:51;100963.59;;;7.54;100.00
71772;BME280;59606;52.138;5.424;2024-03-23T08:35:16;100955.91;;;7.52;100.00
71772;BME280;59606;52.138;5.424;2024-03-23T08:37:42;100965.56;;;7.49;100.00
71772;BME280;59606;52.138;5.424;2024-03-23T08:40:10;100969.22;;;7.43;100.00
71772;BME280;59606;52.138;5.424;2024-03-23T08:42:36;100966.81;;;7.39;100.00
71772;BME280;59606;52.138;5.424;2024-03-23T08:45:03;100970.06;;;7.44;100.00
71772;BME280;59606;52.138;5.424;2024-03-23T08:47:29;100974.38;;;7.45;100.00
71772;BME280;59606;52.138;5.424;2024-03-23T08:49:54;100970.91;;;7.44;100.00
71772;BME280;59606;52.138;5.424;2024-03-23T08:52:20;100965.06;;;7.39;100.00
71772;BME280;59606;52.138;5.424;2024-03-23T08:54:48;100963.88;;;7.26;100.00
71772;BME280;59606;52.138;5.424;2024-03-23T08:57:14;100971.88;;;7.20;100.00
71772;BME280;59606;52.138;5.424;2024-03-23T08:59:39;100964.31;;;7.14;100.00
71772;BME280;59606;52.138;5.424;2024-03-23T09:02:05;100976.41;;;7.15;100.00
71772;BME280;59606;52.138;5.424;2024-03-23T09:04:30;100964.31;;;7.14;100.00
71772;BME280;59606;52.138;5.424;2024-03-23T09:06:56;100964.44;;;7.11;100.00
71772;BME280;59606;52.138;5.424;2024-03-23T09:09:24;100956.75;;;7.09;100.00
71772;BME280;59606;52.138;5.424;2024-03-23T09:11:49;100951.44;;;7.12;100.00
71772;BME280;59606;52.138;5.424;2024-03-23T09:14:15;100964.22;;;7.17;100.00
71772;BME280;59606;52.138;5.424;2024-03-23T09:16:40;100972.91;;;7.16;100.00
71772;BME280;59606;52.138;5.424;2024-03-23T09:19:06;100969.69;;;7.09;100.00
71772;BME280;59606;52.138;5.424;2024-03-23T09:21:34;100959.75;;;6.98;100.00
71772;BME280;59606;52.138;5.424;2024-03-23T09:24:00;100962.59;;;6.91;100.00
71772;BME280;59606;52.138;5.424;2024-03-23T09:26:26;100960.38;;;6.81;100.00
71772;BME280;59606;52.138;5.424;2024-03-23T09:28:52;100964.03;;;6.76;100.00
71772;BME280;59606;52.138;5.424;2024-03-23T09:31:18;100958.34;;;6.66;100.00
71772;BME280;59606;52.138;5.424;2024-03-23T09:33:43;100952.66;;;6.56;100.00
71772;BME280;59606;52.138;5.424;2024-03-23T09:36:09;100951.16;;;6.51;100.00
71772;BME280;59606;52.138;5.424;2024-03-23T09:38:35;100955.44;;;6.52;100.00
71772;BME280;59606;52.138;5.424;2024-03-23T09:41:00;100951.06;;;6.54;100.00
71772;BME280;59606;52.138;5.424;2024-03-23T09:43:26;100953.38;;;6.60;100.00
71772;BME280;59606;52.138;5.424;2024-03-23T09:45:56;100972.13;;;6.67;100.00
71772;BME280;59606;52.138;5.424;2024-03-23T09:48:24;100963.53;;;6.66;100.00
71772;BME280;59606;52.138;5.424;2024-03-23T09:50:50;100954.38;;;6.57;100.00
71772;BME280;59606;52.138;5.424;2024-03-23T09:53:15;100953.75;;;6.51;100.00
71772;BME280;59606;52.138;5.424;2024-03-23T09:55:43;100950.28;;;6.50;100.00
71772;BME280;59606;52.138;5.424;2024-03-23T09:58:13;100951.19;;;6.73;100.00
71772;BME280;59606;52.138;5.424;2024-03-23T10:00:40;100951.97;;;6.98;100.00
71772;BME280;59606;52.138;5.424;2024-03-23T10:03:09;100943.97;;;7.26;100.00
71772;BME280;59606;52.138;5.424;2024-03-23T10:05:37;100937.94;;;7.48;100.00
71772;BME280;59606;52.138;5.424;2024-03-23T10:10:44;100937.19;;;7.87;100.00
71772;BME280;59606;52.138;5.424;2024-03-23T10:13:23;100927.41;;;8.14;100.00
71772;BME280;59606;52.138;5.424;2024-03-23T10:15:56;100921.53;;;8.29;100.00
71772;BME280;59606;52.138;5.424;2024-03-23T10:18:29;100920.59;;;8.32;100.00
71772;BME280;59606;52.138;5.424;2024-03-23T10:23:40;100921.75;;;8.04;100.00
71772;BME280;59606;52.138;5.424;2024-03-23T10:26:20;100927.94;;;8.01;100.00
71772;BME280;59606;52.138;5.424;2024-03-23T10:29:00;100936.81;;;8.16;100.00
71772;BME280;59606;52.138;5.424;2024-03-23T10:31:31;100941.78;;;8.21;100.00
71772;BME280;59606;52.138;5.424;2024-03-23T10:33:57;100946.28;;;8.38;100.00
71772;BME280;59606;52.138;5.424;2024-03-23T10:36:23;100933.31;;;8.57;100.00
71772;BME280;59606;52.138;5.424;2024-03-23T10:38:50;100922.03;;;8.77;100.00
71772;BME280;59606;52.138;5.424;2024-03-23T10:41:17;100910.88;;;8.93;100.00
71772;BME280;59606;52.138;5.424;2024-03-23T10:43:45;100932.69;;;9.08;100.00
71772;BME280;59606;52.138;5.424;2024-03-23T10:46:11;100915.91;;;9.15;100.00
71772;BME280;59606;52.138;5.424;2024-03-23T10:48:37;100925.28;;;9.18;97.37
71772;BME280;59606;52.138;5.424;2024-03-23T10:51:04;100924.47;;;8.98;92.55
71772;BME280;59606;52.138;5.424;2024-03-23T10:53:31;100929.19;;;8.71;92.47
71772;BME280;59606;52.138;5.424;2024-03-23T10:55:59;100935.50;;;8.47;94.74
71772;BME280;59606;52.138;5.424;2024-03-23T10:58:31;100954.63;;;8.24;98.02
71772;BME280;59606;52.138;5.424;2024-03-23T11:00:57;100956.53;;;8.00;100.00
71772;BME280;59606;52.138;5.424;2024-03-23T11:03:38;100945.81;;;7.87;100.00
71772;BME280;59606;52.138;5.424;2024-03-23T11:06:05;100940.34;;;7.95;100.00
71772;BME280;59606;52.138;5.424;2024-03-23T11:08:39;100940.38;;;8.14;100.00
71772;BME280;59606;52.138;5.424;2024-03-23T11:11:21;100939.00;;;8.46;100.00
71772;BME280;59606;52.138;5.424;2024-03-23T11:13:48;100932.13;;;8.64;100.00
71772;BME280;59606;52.138;5.424;2024-03-23T11:16:26;100927.94;;;8.80;100.00
71772;BME280;59606;52.138;5.424;2024-03-23T11:19:39;100932.84;;;8.86;100.00
71772;BME280;59606;52.138;5.424;2024-03-23T11:22:05;100917.91;;;8.72;100.00
71772;BME280;59606;52.138;5.424;2024-03-23T11:24:32;100934.31;;;8.54;99.31
71772;BME280;59606;52.138;5.424;2024-03-23T11:26:58;100928.09;;;8.38;96.42
71772;BME280;59606;52.138;5.424;2024-03-23T11:29:26;100939.50;;;8.34;95.19
71772;BME280;59606;52.138;5.424;2024-03-23T11:31:53;100919.94;;;8.26;93.25
71772;BME280;59606;52.138;5.424;2024-03-23T11:34:19;100929.59;;;8.43;94.18
71772;BME280;59606;52.138;5.424;2024-03-23T11:36:46;100920.38;;;8.76;95.55
71772;BME280;59606;52.138;5.424;2024-03-23T11:39:16;100913.66;;;9.08;94.09
71772;BME280;59606;52.138;5.424;2024-03-23T11:44:25;100905.25;;;9.39;92.14
71772;BME280;59606;52.138;5.424;2024-03-23T11:46:51;100907.38;;;9.48;90.66
71772;BME280;59606;52.138;5.424;2024-03-23T11:49:28;100904.75;;;9.65;88.23
71772;BME280;59606;52.138;5.424;2024-03-23T11:51:55;100901.56;;;9.78;81.86
71772;BME280;59606;52.138;5.424;2024-03-23T11:54:22;100901.88;;;9.72;76.72
71772;BME280;59606;52.138;5.424;2024-03-23T11:57:02;100891.41;;;9.56;80.13
71772;BME280;59606;52.138;5.424;2024-03-23T11:59:40;100889.09;;;9.32;80.68
71772;BME280;59606;52.138;5.424;2024-03-23T12:02:12;100908.94;;;9.16;81.41
71772;BME280;59606;52.138;5.424;2024-03-23T12:04:41;100910.50;;;9.01;80.15
71772;BME280;59606;52.138;5.424;2024-03-23T12:07:18;100905.56;;;8.95;80.34
71772;BME280;59606;52.138;5.424;2024-03-23T12:09:45;100900.38;;;8.95;79.89
71772;BME280;59606;52.138;5.424;2024-03-23T12:12:16;100896.06;;;8.95;81.03
71772;BME280;59606;52.138;5.424;2024-03-23T12:14:45;100907.72;;;8.87;80.45
71772;BME280;59606;52.138;5.424;2024-03-23T12:17:25;100889.94;;;8.78;80.92
71772;BME280;59606;52.138;5.424;2024-03-23T12:19:51;100894.94;;;8.82;81.38
71772;BME280;59606;52.138;5.424;2024-03-23T12:22:21;100888.19;;;8.97;82.68
71772;BME280;59606;52.138;5.424;2024-03-23T12:24:48;100886.69;;;9.10;80.02
71772;BME280;59606;52.138;5.424;2024-03-23T12:27:14;100876.25;;;9.29;80.88
71772;BME280;59606;52.138;5.424;2024-03-23T12:29:40;100881.16;;;9.53;83.19
71772;BME280;59606;52.138;5.424;2024-03-23T12:32:09;100868.59;;;9.43;79.00
71772;BME280;59606;52.138;5.424;2024-03-23T12:34:34;100869.97;;;9.33;77.82
71772;BME280;59606;52.138;5.424;2024-03-23T12:37:00;100871.25;;;9.25;75.99
71772;BME280;59606;52.138;5.424;2024-03-23T12:39:26;100889.94;;;9.33;75.82
71772;BME280;59606;52.138;5.424;2024-03-23T12:41:52;100869.03;;;9.52;77.16
71772;BME280;59606;52.138;5.424;2024-03-23T12:44:18;100860.84;;;9.77;77.98
71772;BME280;59606;52.138;5.424;2024-03-23T12:46:44;100856.56;;;9.93;74.84
71772;BME280;59606;52.138;5.424;2024-03-23T12:49:10;100856.41;;;9.96;74.82
71772;BME280;59606;52.138;5.424;2024-03-23T12:51:36;100861.81;;;9.91;73.79
71772;BME280;59606;52.138;5.424;2024-03-23T12:54:02;100865.44;;;9.72;74.77
71772;BME280;59606;52.138;5.424;2024-03-23T12:56:28;100870.75;;;9.53;73.53
71772;BME280;59606;52.138;5.424;2024-03-23T12:58:54;100873.16;;;9.38;73.38
71772;BME280;59606;52.138;5.424;2024-03-23T13:01:23;100857.81;;;9.34;74.60
71772;BME280;59606;52.138;5.424;2024-03-23T13:03:49;100877.59;;;9.19;74.72
71772;BME280;59606;52.138;5.424;2024-03-23T13:06:15;100872.91;;;9.08;75.77
71772;BME280;59606;52.138;5.424;2024-03-23T13:08:41;100869.00;;;9.00;75.79
71772;BME280;59606;52.138;5.424;2024-03-23T13:11:09;100874.94;;;9.02;77.22
71772;BME280;59606;52.138;5.424;2024-03-23T13:13:36;100879.31;;;9.01;75.75
71772;BME280;59606;52.138;5.424;2024-03-23T13:16:03;100866.03;;;9.07;74.57
71772;BME280;59606;52.138;5.424;2024-03-23T13:18:29;100856.72;;;9.20;74.12
71772;BME280;59606;52.138;5.424;2024-03-23T13:20:56;100860.25;;;9.37;74.57
71772;BME280;59606;52.138;5.424;2024-03-23T13:23:22;100863.09;;;9.50;72.43
71772;BME280;59606;52.138;5.424;2024-03-23T13:25:52;100872.34;;;9.38;71.50
71772;BME280;59606;52.138;5.424;2024-03-23T13:28:22;100898.69;;;9.13;74.70
71772;BME280;59606;52.138;5.424;2024-03-23T13:30:56;100907.63;;;8.88;74.85
71772;BME280;59606;52.138;5.424;2024-03-23T13:33:25;100906.38;;;8.59;78.95
71772;BME280;59606;52.138;5.424;2024-03-23T13:35:52;100884.50;;;8.46;81.05
71772;BME280;59606;52.138;5.424;2024-03-23T13:38:22;100878.84;;;8.36;81.09
71772;BME280;59606;52.138;5.424;2024-03-23T13:43:16;100884.88;;;8.37;82.58
71772;BME280;59606;52.138;5.424;2024-03-23T13:45:44;100875.22;;;8.59;83.56
71772;BME280;59606;52.138;5.424;2024-03-23T13:48:09;100872.81;;;8.92;81.61
71772;BME280;59606;52.138;5.424;2024-03-23T13:50:36;100866.56;;;9.14;80.00
71772;BME280;59606;52.138;5.424;2024-03-23T13:53:03;100870.66;;;9.19;80.19
71772;BME280;59606;52.138;5.424;2024-03-23T13:55:29;100884.78;;;9.14;76.88